Sensation — C6FM8 — position and weather

sailwx.info

Track history (hours):
 
Tides and Currents Weather Stations Pressure Air Temp Water Temp Dewpoint Dewpoint Depression Visibility Wind Speed Wind Dir Waves Ship Positions

Sensation

Last reported at 2019-Jun-16 00:59 UTC. Time now 2019-Jun-16 01:18 UTC.
Position N 20°29' W 086°59'.

Type: Ship. MMSI: 309697000.

Date/timePositionNaut miles runAvg speedWind from/ knotsBaromVisibWave heightAir tempDewpointWater temp
2019-Jun-16 00:59N 20°29' W 086°59'0 0.0
2019-Jun-16 00:29N 20°29' W 086°59'0 0.0
2019-Jun-15 23:59N 20°29' W 086°59'0 0.0
2019-Jun-15 23:28N 20°29' W 086°59'0 0.0
2019-Jun-15 22:59N 20°29' W 086°59'0 0.0
2019-Jun-15 22:29N 20°29' W 086°59'0 0.0
2019-Jun-15 21:58N 20°29' W 086°59'0 0.0
2019-Jun-15 21:29N 20°29' W 086°59'0 0.0
2019-Jun-15 20:59N 20°29' W 086°59'0 0.0
2019-Jun-15 20:29N 20°29' W 086°59'0 0.0
2019-Jun-15 19:57N 20°29' W 086°59'0 0.0
2019-Jun-15 19:29N 20°29' W 086°59'0 0.0
2019-Jun-15 18:59N 20°29' W 086°59'0 0.0
2019-Jun-15 18:29N 20°29' W 086°59'0 0.0
2019-Jun-15 17:59N 20°29' W 086°59'0 0.0
2019-Jun-15 17:29N 20°29' W 086°59'0 0.0
2019-Jun-15 16:59N 20°29' W 086°59'0 0.0
2019-Jun-15 16:29N 20°29' W 086°59'0 0.0
2019-Jun-15 15:59N 20°29' W 086°59'0 0.4
2019-Jun-15 15:30N 20°29' W 086°59'4 7.5
2019-Jun-15 15:00N 20°33' W 086°58'713.3
2019-Jun-15 14:30N 20°38' W 086°55'47312.4
2019-Jun-14 00:12N 25°06' W 079°51'211.9
2019-Jun-14 00:00N 25°08' W 079°50'611.8
2019-Jun-13 23:30N 25°14' W 079°48'611.5
2019-Jun-13 23:00N 25°19' W 079°47'611.5
2019-Jun-13 22:30N 25°25' W 079°47'611.2
2019-Jun-13 22:00N 25°31' W 079°47'611.2
2019-Jun-13 21:30N 25°36' W 079°50'612.3
2019-Jun-13 21:00N 25°40' W 079°55'612.8
2019-Jun-13 20:31N 25°44' W 080°01'611.3
2019-Jun-13 20:01N 25°45' W 080°07'3 6.2
2019-Jun-13 19:29N 25°47' W 080°10'0 0.0
2019-Jun-13 18:59N 25°47' W 080°10'0 0.0
2019-Jun-13 18:29N 25°47' W 080°10'0 0.0
2019-Jun-13 17:59N 25°47' W 080°10'0 0.0
2019-Jun-13 17:29N 25°47' W 080°10'0 0.0
2019-Jun-13 16:59N 25°47' W 080°10'0 0.0
2019-Jun-13 16:29N 25°47' W 080°10'0 0.0
2019-Jun-13 15:59N 25°47' W 080°10'0 0.0
2019-Jun-13 15:29N 25°47' W 080°10'0 0.0
2019-Jun-13 14:59N 25°47' W 080°10'0 0.0
2019-Jun-13 14:29N 25°47' W 080°10'0 0.0
2019-Jun-13 13:59N 25°47' W 080°10'0 0.0
2019-Jun-13 13:29N 25°47' W 080°10'0 0.0
2019-Jun-13 12:59N 25°47' W 080°10'0 0.0
2019-Jun-13 12:29N 25°47' W 080°10'0 0.0
2019-Jun-13 11:59N 25°47' W 080°10'0 0.0
2019-Jun-13 11:29N 25°47' W 080°10'0 0.0
2019-Jun-13 10:59N 25°47' W 080°10'0 0.0
2019-Jun-13 10:29N 25°47' W 080°10'1 1.2
2019-Jun-13 10:01N 25°47' W 080°11'2 3.2
2019-Jun-13 09:30N 25°46' W 080°09'611.2
2019-Jun-13 09:00N 25°47' W 080°03'611.1
2019-Jun-13 08:30N 25°47' W 079°57'713.6
2019-Jun-13 08:00N 25°49' W 079°50'816.3
2019-Jun-13 07:30N 25°51' W 079°41'713.8
2019-Jun-13 07:00N 25°56' W 079°35'914.2
2019-Jun-13 06:22N 26°04' W 079°30'616.2
2019-Jun-13 06:00N 26°08' W 079°26'815.9
2019-Jun-13 05:30N 26°14' W 079°20'916.0
2019-Jun-13 04:58N 26°16' W 079°11'361 7.4
2019-Jun-11 04:00N 22°54' W 073°42'341 6.8 090 / 131017.310.8 27.025.727.2
2019-Jun-09 01:41N 26°13' W 078°46'412.6
2019-Jun-09 01:23N 26°14' W 078°50'1214.9
2019-Jun-09 00:35N 26°16' W 079°03'115.3
2019-Jun-09 00:30N 26°16' W 079°04'815.5
2019-Jun-09 00:00N 26°16' W 079°13'714.9
2019-Jun-08 23:30N 26°15' W 079°21'917.4
2019-Jun-08 23:01N 26°08' W 079°27'918.0
2019-Jun-08 22:30N 26°01' W 079°33'816.6
2019-Jun-08 22:00N 25°55' W 079°39'816.5
2019-Jun-08 21:31N 25°51' W 079°48'816.2
2019-Jun-08 21:00N 25°48' W 079°56'714.7
2019-Jun-08 20:30N 25°46' W 080°04'510.0
2019-Jun-08 20:00N 25°46' W 080°09'281560.9
2019-Jun-08 19:30N 23°54' W 075°25'282558.7
2019-Jun-08 19:00N 25°47' W 080°10'0 0.0
2019-Jun-08 18:29N 25°47' W 080°10'492959.7
2019-Jun-08 17:58N 20°30' W 086°59'4921007.8
2019-Jun-08 17:29N 25°47' W 080°10'0 0.0
2019-Jun-08 16:59N 25°47' W 080°10'0 0.0
2019-Jun-08 16:29N 25°47' W 080°10'0 0.0
2019-Jun-08 15:58N 25°47' W 080°10'0 0.0
2019-Jun-08 15:28N 25°47' W 080°10'0 0.0
2019-Jun-08 14:59N 25°47' W 080°10'0 0.0
2019-Jun-08 14:29N 25°47' W 080°10'0 0.0
2019-Jun-08 13:59N 25°47' W 080°10'0 0.0
2019-Jun-08 13:29N 25°47' W 080°10'0 0.0
2019-Jun-08 12:58N 25°47' W 080°10'0 0.0
2019-Jun-08 12:29N 25°47' W 080°10'0 0.0
2019-Jun-08 11:59N 25°47' W 080°10'0 0.0
2019-Jun-08 11:29N 25°47' W 080°10'0 0.0
2019-Jun-08 10:59N 25°47' W 080°10'0 0.0
2019-Jun-08 10:31N 25°47' W 080°10'1 1.6
2019-Jun-08 10:01N 25°47' W 080°11'3 5.4
2019-Jun-08 09:30N 25°46' W 080°08'510.2
2019-Jun-08 09:01N 25°46' W 080°02'5 9.6
2019-Jun-08 08:30N 25°43' W 079°59'511.0
2019-Jun-08 08:00N 25°38' W 079°57'715.0
2019-Jun-08 07:30N 25°30' W 079°57'815.6
2019-Jun-08 07:00N 25°22' W 079°57'918.1
2019-Jun-08 06:29N 25°13' W 079°59'46819.8
2019-Jun-07 06:47N 20°41' W 086°53'622.8
2019-Jun-07 06:30N 20°36' W 086°57'714.4
2019-Jun-07 06:00N 20°29' W 086°59'0 0.6
2019-Jun-07 05:30N 20°29' W 086°59'2 3.7
2019-Jun-07 05:00N 20°30' W 086°59'5 9.8
2019-Jun-07 04:30N 20°35' W 086°57'915.6
2019-Jun-07 03:57N 20°41' W 086°51'2 1.9
2019-Jun-07 02:57N 20°41' W 086°53'819.1
2019-Jun-07 02:30N 20°34' W 086°58'4 6.9
2019-Jun-07 01:57N 20°31' W 086°57'0 0.0
2019-Jun-07 01:30N 20°31' W 086°57'0 0.0
2019-Jun-07 01:00N 20°31' W 086°57'0 0.0
2019-Jun-07 00:30N 20°31' W 086°57'0 0.0
2019-Jun-07 00:00N 20°31' W 086°57'0 0.0
2019-Jun-06 23:30N 20°31' W 086°57'0 0.0
2019-Jun-06 23:00N 20°31' W 086°57'0 0.0
2019-Jun-06 22:30N 20°31' W 086°57'0 0.0
2019-Jun-06 22:00N 20°31' W 086°57'0 0.0
2019-Jun-06 21:30N 20°31' W 086°57'0 0.0
2019-Jun-06 21:00N 20°31' W 086°57'0 0.0
2019-Jun-06 20:30N 20°31' W 086°57'0 0.0
2019-Jun-06 20:00N 20°31' W 086°57'0 0.0
2019-Jun-06 19:30N 20°31' W 086°57'0 0.0
2019-Jun-06 19:00N 20°31' W 086°57'0 0.0
2019-Jun-06 18:30N 20°31' W 086°57'0 0.0
2019-Jun-06 18:00N 20°31' W 086°57'0 0.0
2019-Jun-06 17:30N 20°31' W 086°57'0 0.0
2019-Jun-06 17:00N 20°31' W 086°57'0 0.0
2019-Jun-06 16:27N 20°31' W 086°57'0 0.0
2019-Jun-06 16:00N 20°31' W 086°57'0 0.0
2019-Jun-06 15:30N 20°31' W 086°57'0 0.5
2019-Jun-06 15:00N 20°31' W 086°58'2 4.6
2019-Jun-06 14:30N 20°33' W 086°58'713.8
2019-Jun-06 14:01N 20°39' W 086°53'  
Track history (hours):
 
Tides and Currents Weather Stations Pressure Air Temp Water Temp Dewpoint Dewpoint Depression Visibility Wind Speed Wind Dir Waves Ship Positions

Sensation

Last reported at 2019-Jun-16 00:59 UTC. Time now 2019-Jun-16 01:18 UTC.
Position N 20°29' W 086°59'.

Type: Ship. MMSI: 309697000.

Date/timePositionNaut miles runAvg speedWind from/ knotsBaromVisibWave heightAir tempDewpointWater temp
2019-Jun-16 00:59N 20°29' W 086°59'0 0.0
2019-Jun-16 00:29N 20°29' W 086°59'0 0.0
2019-Jun-15 23:59N 20°29' W 086°59'0 0.0
2019-Jun-15 23:28N 20°29' W 086°59'0 0.0
2019-Jun-15 22:59N 20°29' W 086°59'0 0.0
2019-Jun-15 22:29N 20°29' W 086°59'0 0.0
2019-Jun-15 21:58N 20°29' W 086°59'0 0.0
2019-Jun-15 21:29N 20°29' W 086°59'0 0.0
2019-Jun-15 20:59N 20°29' W 086°59'0 0.0
2019-Jun-15 20:29N 20°29' W 086°59'0 0.0
2019-Jun-15 19:57N 20°29' W 086°59'0 0.0
2019-Jun-15 19:29N 20°29' W 086°59'0 0.0
2019-Jun-15 18:59N 20°29' W 086°59'0 0.0
2019-Jun-15 18:29N 20°29' W 086°59'0 0.0
2019-Jun-15 17:59N 20°29' W 086°59'0 0.0
2019-Jun-15 17:29N 20°29' W 086°59'0 0.0
2019-Jun-15 16:59N 20°29' W 086°59'0 0.0
2019-Jun-15 16:29N 20°29' W 086°59'0 0.0
2019-Jun-15 15:59N 20°29' W 086°59'0 0.4
2019-Jun-15 15:30N 20°29' W 086°59'4 7.5
2019-Jun-15 15:00N 20°33' W 086°58'713.3
2019-Jun-15 14:30N 20°38' W 086°55'47312.4
2019-Jun-14 00:12N 25°06' W 079°51'211.9
2019-Jun-14 00:00N 25°08' W 079°50'611.8
2019-Jun-13 23:30N 25°14' W 079°48'611.5
2019-Jun-13 23:00N 25°19' W 079°47'611.5
2019-Jun-13 22:30N 25°25' W 079°47'611.2
2019-Jun-13 22:00N 25°31' W 079°47'611.2
2019-Jun-13 21:30N 25°36' W 079°50'612.3
2019-Jun-13 21:00N 25°40' W 079°55'612.8
2019-Jun-13 20:31N 25°44' W 080°01'611.3
2019-Jun-13 20:01N 25°45' W 080°07'3 6.2
2019-Jun-13 19:29N 25°47' W 080°10'0 0.0
2019-Jun-13 18:59N 25°47' W 080°10'0 0.0
2019-Jun-13 18:29N 25°47' W 080°10'0 0.0
2019-Jun-13 17:59N 25°47' W 080°10'0 0.0
2019-Jun-13 17:29N 25°47' W 080°10'0 0.0
2019-Jun-13 16:59N 25°47' W 080°10'0 0.0
2019-Jun-13 16:29N 25°47' W 080°10'0 0.0
2019-Jun-13 15:59N 25°47' W 080°10'0 0.0
2019-Jun-13 15:29N 25°47' W 080°10'0 0.0
2019-Jun-13 14:59N 25°47' W 080°10'0 0.0
2019-Jun-13 14:29N 25°47' W 080°10'0 0.0
2019-Jun-13 13:59N 25°47' W 080°10'0 0.0
2019-Jun-13 13:29N 25°47' W 080°10'0 0.0
2019-Jun-13 12:59N 25°47' W 080°10'0 0.0
2019-Jun-13 12:29N 25°47' W 080°10'0 0.0
2019-Jun-13 11:59N 25°47' W 080°10'0 0.0
2019-Jun-13 11:29N 25°47' W 080°10'0 0.0
2019-Jun-13 10:59N 25°47' W 080°10'0 0.0
2019-Jun-13 10:29N 25°47' W 080°10'1 1.2
2019-Jun-13 10:01N 25°47' W 080°11'2 3.2
2019-Jun-13 09:30N 25°46' W 080°09'611.2
2019-Jun-13 09:00N 25°47' W 080°03'611.1
2019-Jun-13 08:30N 25°47' W 079°57'713.6
2019-Jun-13 08:00N 25°49' W 079°50'816.3
2019-Jun-13 07:30N 25°51' W 079°41'713.8
2019-Jun-13 07:00N 25°56' W 079°35'914.2
2019-Jun-13 06:22N 26°04' W 079°30'616.2
2019-Jun-13 06:00N 26°08' W 079°26'815.9
2019-Jun-13 05:30N 26°14' W 079°20'916.0
2019-Jun-13 04:58N 26°16' W 079°11'361 7.4
2019-Jun-11 04:00N 22°54' W 073°42'341 6.8 090 / 131017.310.8 27.025.727.2
2019-Jun-09 01:41N 26°13' W 078°46'412.6
2019-Jun-09 01:23N 26°14' W 078°50'1214.9
2019-Jun-09 00:35N 26°16' W 079°03'115.3
2019-Jun-09 00:30N 26°16' W 079°04'815.5
2019-Jun-09 00:00N 26°16' W 079°13'714.9
2019-Jun-08 23:30N 26°15' W 079°21'917.4
2019-Jun-08 23:01N 26°08' W 079°27'918.0
2019-Jun-08 22:30N 26°01' W 079°33'816.6
2019-Jun-08 22:00N 25°55' W 079°39'816.5
2019-Jun-08 21:31N 25°51' W 079°48'816.2
2019-Jun-08 21:00N 25°48' W 079°56'714.7
2019-Jun-08 20:30N 25°46' W 080°04'510.0
2019-Jun-08 20:00N 25°46' W 080°09'281560.9
2019-Jun-08 19:30N 23°54' W 075°25'282558.7
2019-Jun-08 19:00N 25°47' W 080°10'0 0.0
2019-Jun-08 18:29N 25°47' W 080°10'492959.7
2019-Jun-08 17:58N 20°30' W 086°59'4921007.8
2019-Jun-08 17:29N 25°47' W 080°10'0 0.0
2019-Jun-08 16:59N 25°47' W 080°10'0 0.0
2019-Jun-08 16:29N 25°47' W 080°10'0 0.0
2019-Jun-08 15:58N 25°47' W 080°10'0 0.0
2019-Jun-08 15:28N 25°47' W 080°10'0 0.0
2019-Jun-08 14:59N 25°47' W 080°10'0 0.0
2019-Jun-08 14:29N 25°47' W 080°10'0 0.0
2019-Jun-08 13:59N 25°47' W 080°10'0 0.0
2019-Jun-08 13:29N 25°47' W 080°10'0 0.0
2019-Jun-08 12:58N 25°47' W 080°10'0 0.0
2019-Jun-08 12:29N 25°47' W 080°10'0 0.0
2019-Jun-08 11:59N 25°47' W 080°10'0 0.0
2019-Jun-08 11:29N 25°47' W 080°10'0 0.0
2019-Jun-08 10:59N 25°47' W 080°10'0 0.0
2019-Jun-08 10:31N 25°47' W 080°10'1 1.6
2019-Jun-08 10:01N 25°47' W 080°11'3 5.4
2019-Jun-08 09:30N 25°46' W 080°08'510.2
2019-Jun-08 09:01N 25°46' W 080°02'5 9.6
2019-Jun-08 08:30N 25°43' W 079°59'511.0
2019-Jun-08 08:00N 25°38' W 079°57'715.0
2019-Jun-08 07:30N 25°30' W 079°57'815.6
2019-Jun-08 07:00N 25°22' W 079°57'918.1
2019-Jun-08 06:29N 25°13' W 079°59'46819.8
2019-Jun-07 06:47N 20°41' W 086°53'622.8
2019-Jun-07 06:30N 20°36' W 086°57'714.4
2019-Jun-07 06:00N 20°29' W 086°59'0 0.6
2019-Jun-07 05:30N 20°29' W 086°59'2 3.7
2019-Jun-07 05:00N 20°30' W 086°59'5 9.8
2019-Jun-07 04:30N 20°35' W 086°57'915.6
2019-Jun-07 03:57N 20°41' W 086°51'2 1.9
2019-Jun-07 02:57N 20°41' W 086°53'819.1
2019-Jun-07 02:30N 20°34' W 086°58'4 6.9
2019-Jun-07 01:57N 20°31' W 086°57'0 0.0
2019-Jun-07 01:30N 20°31' W 086°57'0 0.0
2019-Jun-07 01:00N 20°31' W 086°57'0 0.0
2019-Jun-07 00:30N 20°31' W 086°57'0 0.0
2019-Jun-07 00:00N 20°31' W 086°57'0 0.0
2019-Jun-06 23:30N 20°31' W 086°57'0 0.0
2019-Jun-06 23:00N 20°31' W 086°57'0 0.0
2019-Jun-06 22:30N 20°31' W 086°57'0 0.0
2019-Jun-06 22:00N 20°31' W 086°57'0 0.0
2019-Jun-06 21:30N 20°31' W 086°57'0 0.0
2019-Jun-06 21:00N 20°31' W 086°57'0 0.0
2019-Jun-06 20:30N 20°31' W 086°57'0 0.0
2019-Jun-06 20:00N 20°31' W 086°57'0 0.0
2019-Jun-06 19:30N 20°31' W 086°57'0 0.0
2019-Jun-06 19:00N 20°31' W 086°57'0 0.0
2019-Jun-06 18:30N 20°31' W 086°57'0 0.0
2019-Jun-06 18:00N 20°31' W 086°57'0 0.0
2019-Jun-06 17:30N 20°31' W 086°57'0 0.0
2019-Jun-06 17:00N 20°31' W 086°57'0 0.0
2019-Jun-06 16:27N 20°31' W 086°57'0 0.0
2019-Jun-06 16:00N 20°31' W 086°57'0 0.0
2019-Jun-06 15:30N 20°31' W 086°57'0 0.5
2019-Jun-06 15:00N 20°31' W 086°58'2 4.6
2019-Jun-06 14:30N 20°33' W 086°58'713.8
2019-Jun-06 14:01N 20°39' W 086°53'  

Dump ship's entire track history